sensor_id;sensor_type;location;lat;lon;timestamp;temperature;humidity
25628;DHT22;40915;50.826;4.356;2023-10-08T00:01:18;16.70;99.90
25628;DHT22;40915;50.826;4.356;2023-10-08T00:03:46;16.70;99.90
25628;DHT22;40915;50.826;4.356;2023-10-08T00:06:21;16.60;99.90
25628;DHT22;40915;50.826;4.356;2023-10-08T00:08:47;16.60;99.90
25628;DHT22;40915;50.826;4.356;2023-10-08T00:11:13;16.60;99.90
25628;DHT22;40915;50.826;4.356;2023-10-08T00:13:42;16.50;99.90
25628;DHT22;40915;50.826;4.356;2023-10-08T00:16:10;16.50;99.90
25628;DHT22;40915;50.826;4.356;2023-10-08T00:18:37;16.50;99.90
25628;DHT22;40915;50.826;4.356;2023-10-08T00:21:04;16.50;99.90
25628;DHT22;40915;50.826;4.356;2023-10-08T00:23:36;16.50;99.90
25628;DHT22;40915;50.826;4.356;2023-10-08T00:26:07;16.50;99.90
25628;DHT22;40915;50.826;4.356;2023-10-08T00:28:33;16.50;99.90
25628;DHT22;40915;50.826;4.356;2023-10-08T00:31:02;16.40;99.90
25628;DHT22;40915;50.826;4.356;2023-10-08T00:33:41;16.40;99.90
25628;DHT22;40915;50.826;4.356;2023-10-08T00:36:10;16.40;99.90
25628;DHT22;40915;50.826;4.356;2023-10-08T00:38:52;16.40;99.90
25628;DHT22;40915;50.826;4.356;2023-10-08T00:41:20;16.30;99.90
25628;DHT22;40915;50.826;4.356;2023-10-08T00:43:54;16.30;99.90
25628;DHT22;40915;50.826;4.356;2023-10-08T00:46:22;16.30;99.90
25628;DHT22;40915;50.826;4.356;2023-10-08T00:48:52;16.30;99.90
25628;DHT22;40915;50.826;4.356;2023-10-08T00:51:22;16.30;99.90
25628;DHT22;40915;50.826;4.356;2023-10-08T00:54:00;16.30;99.90
25628;DHT22;40915;50.826;4.356;2023-10-08T00:56:32;16.30;99.90
25628;DHT22;40915;50.826;4.356;2023-10-08T00:59:17;16.30;99.90
25628;DHT22;40915;50.826;4.356;2023-10-08T01:01:47;16.30;99.90
25628;DHT22;40915;50.826;4.356;2023-10-08T01:04:21;16.30;99.90
25628;DHT22;40915;50.826;4.356;2023-10-08T01:06:55;16.20;99.90
25628;DHT22;40915;50.826;4.356;2023-10-08T01:09:25;16.30;99.90
25628;DHT22;40915;50.826;4.356;2023-10-08T01:12:19;16.20;99.90
25628;DHT22;40915;50.826;4.356;2023-10-08T01:14:47;16.20;99.90
25628;DHT22;40915;50.826;4.356;2023-10-08T01:17:15;16.20;99.90
25628;DHT22;40915;50.826;4.356;2023-10-08T01:19:42;16.10;99.90
25628;DHT22;40915;50.826;4.356;2023-10-08T01:22:13;16.10;99.90
25628;DHT22;40915;50.826;4.356;2023-10-08T01:24:44;16.10;99.90
25628;DHT22;40915;50.826;4.356;2023-10-08T01:27:13;16.00;99.90
25628;DHT22;40915;50.826;4.356;2023-10-08T01:29:44;16.00;99.90
25628;DHT22;40915;50.826;4.356;2023-10-08T01:32:10;16.00;99.90
25628;DHT22;40915;50.826;4.356;2023-10-08T01:34:37;15.90;99.90
25628;DHT22;40915;50.826;4.356;2023-10-08T01:37:03;15.90;99.90
25628;DHT22;40915;50.826;4.356;2023-10-08T01:39:36;15.90;99.90
25628;DHT22;40915;50.826;4.356;2023-10-08T01:42:01;15.90;99.90
25628;DHT22;40915;50.826;4.356;2023-10-08T01:44:27;15.80;99.90
25628;DHT22;40915;50.826;4.356;2023-10-08T01:46:54;15.80;99.90
25628;DHT22;40915;50.826;4.356;2023-10-08T01:49:23;15.80;99.90
25628;DHT22;40915;50.826;4.356;2023-10-08T01:51:54;15.80;99.90
25628;DHT22;40915;50.826;4.356;2023-10-08T01:54:20;15.70;99.90
25628;DHT22;40915;50.826;4.356;2023-10-08T01:56:46;15.80;99.90
25628;DHT22;40915;50.826;4.356;2023-10-08T01:59:14;15.70;99.90
25628;DHT22;40915;50.826;4.356;2023-10-08T02:01:43;15.70;99.90
25628;DHT22;40915;50.826;4.356;2023-10-08T02:04:10;15.60;99.90
25628;DHT22;40915;50.826;4.356;2023-10-08T02:06:38;15.60;99.90
25628;DHT22;40915;50.826;4.356;2023-10-08T02:09:05;15.60;99.90
25628;DHT22;40915;50.826;4.356;2023-10-08T02:11:46;15.60;99.90
25628;DHT22;40915;50.826;4.356;2023-10-08T02:14:16;15.60;99.90
25628;DHT22;40915;50.826;4.356;2023-10-08T02:16:43;15.60;99.90
25628;DHT22;40915;50.826;4.356;2023-10-08T02:19:09;15.50;99.90
25628;DHT22;40915;50.826;4.356;2023-10-08T02:21:37;15.50;99.90
25628;DHT22;40915;50.826;4.356;2023-10-08T02:24:06;15.50;99.90
25628;DHT22;40915;50.826;4.356;2023-10-08T02:26:33;15.50;99.90
25628;DHT22;40915;50.826;4.356;2023-10-08T02:29:00;15.50;99.90
25628;DHT22;40915;50.826;4.356;2023-10-08T02:31:26;15.50;99.90
25628;DHT22;40915;50.826;4.356;2023-10-08T02:33:53;15.40;99.90
25628;DHT22;40915;50.826;4.356;2023-10-08T02:36:19;15.50;99.90
25628;DHT22;40915;50.826;4.356;2023-10-08T02:38:45;15.40;99.90
25628;DHT22;40915;50.826;4.356;2023-10-08T02:41:16;15.50;99.90
25628;DHT22;40915;50.826;4.356;2023-10-08T02:43:42;15.50;99.90
25628;DHT22;40915;50.826;4.356;2023-10-08T02:46:07;15.40;99.90
25628;DHT22;40915;50.826;4.356;2023-10-08T02:48:39;15.40;99.90
25628;DHT22;40915;50.826;4.356;2023-10-08T02:51:05;15.40;99.90
25628;DHT22;40915;50.826;4.356;2023-10-08T02:53:40;15.40;99.90
25628;DHT22;40915;50.826;4.356;2023-10-08T02:56:09;15.40;99.90
25628;DHT22;40915;50.826;4.356;2023-10-08T02:58:41;15.40;99.90
25628;DHT22;40915;50.826;4.356;2023-10-08T03:01:12;15.40;99.90
25628;DHT22;40915;50.826;4.356;2023-10-08T03:03:40;15.40;99.90
25628;DHT22;40915;50.826;4.356;2023-10-08T03:06:06;15.50;99.90
25628;DHT22;40915;50.826;4.356;2023-10-08T03:08:37;15.50;99.90
25628;DHT22;40915;50.826;4.356;2023-10-08T03:11:05;15.50;99.90
25628;DHT22;40915;50.826;4.356;2023-10-08T03:13:32;15.50;99.90
25628;DHT22;40915;50.826;4.356;2023-10-08T03:15:57;15.50;99.90
25628;DHT22;40915;50.826;4.356;2023-10-08T03:18:34;15.50;99.90
25628;DHT22;40915;50.826;4.356;2023-10-08T03:21:06;15.50;99.90
25628;DHT22;40915;50.826;4.356;2023-10-08T03:23:48;15.50;99.90
25628;DHT22;40915;50.826;4.356;2023-10-08T03:26:16;15.50;99.90
25628;DHT22;40915;50.826;4.356;2023-10-08T03:29:03;15.50;99.90
25628;DHT22;40915;50.826;4.356;2023-10-08T03:31:34;15.40;99.90
25628;DHT22;40915;50.826;4.356;2023-10-08T03:34:16;15.40;99.90
25628;DHT22;40915;50.826;4.356;2023-10-08T03:36:44;15.40;99.90
25628;DHT22;40915;50.826;4.356;2023-10-08T03:39:16;15.40;99.90
25628;DHT22;40915;50.826;4.356;2023-10-08T03:41:46;15.40;99.90
25628;DHT22;40915;50.826;4.356;2023-10-08T03:44:31;15.40;99.90
25628;DHT22;40915;50.826;4.356;2023-10-08T03:46:56;15.40;99.90
25628;DHT22;40915;50.826;4.356;2023-10-08T03:49:22;15.40;99.90
25628;DHT22;40915;50.826;4.356;2023-10-08T03:51:49;15.40;99.90
25628;DHT22;40915;50.826;4.356;2023-10-08T03:54:21;15.30;99.90
25628;DHT22;40915;50.826;4.356;2023-10-08T03:56:59;15.30;99.90
25628;DHT22;40915;50.826;4.356;2023-10-08T03:59:26;15.30;99.90
25628;DHT22;40915;50.826;4.356;2023-10-08T04:02:00;15.30;99.90
25628;DHT22;40915;50.826;4.356;2023-10-08T04:04:49;15.30;99.90
25628;DHT22;40915;50.826;4.356;2023-10-08T04:07:21;15.20;99.90
25628;DHT22;40915;50.826;4.356;2023-10-08T04:09:50;15.20;99.90
25628;DHT22;40915;50.826;4.356;2023-10-08T04:12:24;15.20;99.90
25628;DHT22;40915;50.826;4.356;2023-10-08T04:14:52;15.10;99.90
25628;DHT22;40915;50.826;4.356;2023-10-08T04:17:21;15.10;99.90
25628;DHT22;40915;50.826;4.356;2023-10-08T08:58:53;18.30;99.90
25628;DHT22;40915;50.826;4.356;2023-10-08T09:01:19;18.40;99.90
25628;DHT22;40915;50.826;4.356;2023-10-08T09:03:45;18.40;99.90
25628;DHT22;40915;50.826;4.356;2023-10-08T09:06:13;18.50;99.90
25628;DHT22;40915;50.826;4.356;2023-10-08T09:08:39;18.50;99.90
25628;DHT22;40915;50.826;4.356;2023-10-08T09:11:08;18.60;99.90
25628;DHT22;40915;50.826;4.356;2023-10-08T09:13:34;18.70;99.90
25628;DHT22;40915;50.826;4.356;2023-10-08T09:16:13;18.80;99.90
25628;DHT22;40915;50.826;4.356;2023-10-08T09:18:44;18.90;99.90
25628;DHT22;40915;50.826;4.356;2023-10-08T09:21:13;18.90;99.90
25628;DHT22;40915;50.826;4.356;2023-10-08T09:23:50;18.90;99.90
25628;DHT22;40915;50.826;4.356;2023-10-08T09:26:23;18.90;99.90
25628;DHT22;40915;50.826;4.356;2023-10-08T09:28:49;18.90;99.90
25628;DHT22;40915;50.826;4.356;2023-10-08T09:31:17;18.90;99.90
25628;DHT22;40915;50.826;4.356;2023-10-08T09:33:44;18.90;99.90
25628;DHT22;40915;50.826;4.356;2023-10-08T09:36:18;18.80;99.90
25628;DHT22;40915;50.826;4.356;2023-10-08T09:38:46;18.80;99.90
25628;DHT22;40915;50.826;4.356;2023-10-08T09:41:14;18.70;99.90
25628;DHT22;40915;50.826;4.356;2023-10-08T09:43:41;18.70;99.90
25628;DHT22;40915;50.826;4.356;2023-10-08T09:46:19;18.70;99.90
25628;DHT22;40915;50.826;4.356;2023-10-08T09:48:50;18.70;99.90
25628;DHT22;40915;50.826;4.356;2023-10-08T09:51:18;18.70;99.90
25628;DHT22;40915;50.826;4.356;2023-10-08T09:54:17;18.70;99.90
25628;DHT22;40915;50.826;4.356;2023-10-08T09:56:44;18.70;99.90
25628;DHT22;40915;50.826;4.356;2023-10-08T09:59:10;18.90;99.90
25628;DHT22;40915;50.826;4.356;2023-10-08T10:01:38;18.90;99.90
25628;DHT22;40915;50.826;4.356;2023-10-08T10:04:10;19.10;99.90
25628;DHT22;40915;50.826;4.356;2023-10-08T10:06:37;19.20;99.90
25628;DHT22;40915;50.826;4.356;2023-10-08T10:09:05;19.20;99.90
25628;DHT22;40915;50.826;4.356;2023-10-08T10:11:45;19.20;99.90
25628;DHT22;40915;50.826;4.356;2023-10-08T10:14:13;19.30;99.90
25628;DHT22;40915;50.826;4.356;2023-10-08T10:16:39;19.40;99.90
25628;DHT22;40915;50.826;4.356;2023-10-08T10:19:16;19.50;99.90
25628;DHT22;40915;50.826;4.356;2023-10-08T10:21:45;19.60;99.90
25628;DHT22;40915;50.826;4.356;2023-10-08T10:24:32;19.70;99.90
25628;DHT22;40915;50.826;4.356;2023-10-08T10:27:12;19.70;99.90
25628;DHT22;40915;50.826;4.356;2023-10-08T10:29:40;19.70;99.90
25628;DHT22;40915;50.826;4.356;2023-10-08T10:32:10;19.70;99.90
25628;DHT22;40915;50.826;4.356;2023-10-08T10:34:39;19.80;99.90
25628;DHT22;40915;50.826;4.356;2023-10-08T10:37:05;19.90;99.90
25628;DHT22;40915;50.826;4.356;2023-10-08T10:39:55;19.90;99.90
25628;DHT22;40915;50.826;4.356;2023-10-08T10:42:24;20.00;99.90
25628;DHT22;40915;50.826;4.356;2023-10-08T10:44:52;20.10;99.90
25628;DHT22;40915;50.826;4.356;2023-10-08T10:47:19;20.10;99.90
25628;DHT22;40915;50.826;4.356;2023-10-08T10:49:49;20.20;99.90
25628;DHT22;40915;50.826;4.356;2023-10-08T10:52:22;20.20;99.90
25628;DHT22;40915;50.826;4.356;2023-10-08T10:55:00;20.20;99.90
25628;DHT22;40915;50.826;4.356;2023-10-08T10:57:54;20.30;99.90
25628;DHT22;40915;50.826;4.356;2023-10-08T11:00:37;20.40;99.90
25628;DHT22;40915;50.826;4.356;2023-10-08T11:03:04;20.40;99.90
25628;DHT22;40915;50.826;4.356;2023-10-08T11:05:37;20.30;99.90
25628;DHT22;40915;50.826;4.356;2023-10-08T11:08:08;20.30;99.90
25628;DHT22;40915;50.826;4.356;2023-10-08T11:10:37;20.30;99.90
25628;DHT22;40915;50.826;4.356;2023-10-08T11:13:05;20.40;99.90
25628;DHT22;40915;50.826;4.356;2023-10-08T11:15:40;20.50;99.90
25628;DHT22;40915;50.826;4.356;2023-10-08T11:18:16;20.60;99.90
25628;DHT22;40915;50.826;4.356;2023-10-08T11:20:42;20.70;99.90
25628;DHT22;40915;50.826;4.356;2023-10-08T11:26:01;20.80;99.90
25628;DHT22;40915;50.826;4.356;2023-10-08T11:28:38;20.90;99.90
25628;DHT22;40915;50.826;4.356;2023-10-08T11:31:10;21.00;99.90
25628;DHT22;40915;50.826;4.356;2023-10-08T11:33:40;21.00;99.90
25628;DHT22;40915;50.826;4.356;2023-10-08T11:36:07;21.00;99.90
25628;DHT22;40915;50.826;4.356;2023-10-08T11:38:44;21.00;99.90
25628;DHT22;40915;50.826;4.356;2023-10-08T11:41:15;21.10;99.90
25628;DHT22;40915;50.826;4.356;2023-10-08T11:46:14;21.20;99.90
25628;DHT22;40915;50.826;4.356;2023-10-08T11:48:43;21.20;99.90
25628;DHT22;40915;50.826;4.356;2023-10-08T11:51:12;21.20;99.90
25628;DHT22;40915;50.826;4.356;2023-10-08T11:53:42;21.20;99.90
25628;DHT22;40915;50.826;4.356;2023-10-08T11:56:10;21.30;99.90
25628;DHT22;40915;50.826;4.356;2023-10-08T11:58:41;21.30;99.90
25628;DHT22;40915;50.826;4.356;2023-10-08T12:01:11;21.40;99.90
25628;DHT22;40915;50.826;4.356;2023-10-08T12:03:42;21.30;99.90
25628;DHT22;40915;50.826;4.356;2023-10-08T12:06:10;21.40;99.90
25628;DHT22;40915;50.826;4.356;2023-10-08T12:08:44;21.40;99.90
25628;DHT22;40915;50.826;4.356;2023-10-08T12:11:11;21.50;99.90
25628;DHT22;40915;50.826;4.356;2023-10-08T12:13:41;21.60;99.90
25628;DHT22;40915;50.826;4.356;2023-10-08T12:16:16;21.70;99.90
25628;DHT22;40915;50.826;4.356;2023-10-08T12:18:48;21.80;99.90
25628;DHT22;40915;50.826;4.356;2023-10-08T12:21:15;21.80;99.90
25628;DHT22;40915;50.826;4.356;2023-10-08T12:23:41;21.90;99.90
25628;DHT22;40915;50.826;4.356;2023-10-08T12:26:15;22.00;99.90
25628;DHT22;40915;50.826;4.356;2023-10-08T12:28:47;22.10;99.90
25628;DHT22;40915;50.826;4.356;2023-10-08T12:33:51;22.40;99.90
25628;DHT22;40915;50.826;4.356;2023-10-08T12:36:22;22.50;99.90
25628;DHT22;40915;50.826;4.356;2023-10-08T12:38:52;22.50;99.90
25628;DHT22;40915;50.826;4.356;2023-10-08T12:41:25;22.50;99.90
25628;DHT22;40915;50.826;4.356;2023-10-08T12:43:54;22.40;99.90
25628;DHT22;40915;50.826;4.356;2023-10-08T12:46:20;22.40;99.90
25628;DHT22;40915;50.826;4.356;2023-10-08T12:48:56;22.40;99.90
25628;DHT22;40915;50.826;4.356;2023-10-08T12:51:23;22.40;99.90
25628;DHT22;40915;50.826;4.356;2023-10-08T12:53:50;22.40;99.90
25628;DHT22;40915;50.826;4.356;2023-10-08T12:56:20;22.50;99.90
25628;DHT22;40915;50.826;4.356;2023-10-08T12:58:57;22.60;99.90
25628;DHT22;40915;50.826;4.356;2023-10-08T13:01:23;22.70;99.90
25628;DHT22;40915;50.826;4.356;2023-10-08T13:03:48;22.70;99.90
25628;DHT22;40915;50.826;4.356;2023-10-08T13:06:17;22.80;99.90
25628;DHT22;40915;50.826;4.356;2023-10-08T13:08:59;22.80;99.90
25628;DHT22;40915;50.826;4.356;2023-10-08T13:11:26;22.80;99.90
25628;DHT22;40915;50.826;4.356;2023-10-08T13:13:56;22.80;99.90
25628;DHT22;40915;50.826;4.356;2023-10-08T13:16:22;22.80;99.90
25628;DHT22;40915;50.826;4.356;2023-10-08T13:18:49;22.80;99.90
25628;DHT22;40915;50.826;4.356;2023-10-08T13:21:15;22.90;99.90
25628;DHT22;40915;50.826;4.356;2023-10-08T13:23:41;22.90;99.90
25628;DHT22;40915;50.826;4.356;2023-10-08T13:26:07;23.00;99.90
25628;DHT22;40915;50.826;4.356;2023-10-08T14:28:33;23.10;99.90
25628;DHT22;40915;50.826;4.356;2023-10-08T14:31:17;23.10;99.90
25628;DHT22;40915;50.826;4.356;2023-10-08T14:33:43;23.30;99.90
25628;DHT22;40915;50.826;4.356;2023-10-08T14:36:24;23.30;99.90
25628;DHT22;40915;50.826;4.356;2023-10-08T14:39:08;23.30;99.90
25628;DHT22;40915;50.826;4.356;2023-10-08T14:41:52;23.40;99.90
25628;DHT22;40915;50.826;4.356;2023-10-08T14:44:36;23.40;99.90
25628;DHT22;40915;50.826;4.356;2023-10-08T14:47:03;23.40;99.90
25628;DHT22;40915;50.826;4.356;2023-10-08T14:49:30;23.30;99.90
25628;DHT22;40915;50.826;4.356;2023-10-08T14:51:55;23.30;99.90
25628;DHT22;40915;50.826;4.356;2023-10-08T14:54:21;23.30;99.90
25628;DHT22;40915;50.826;4.356;2023-10-08T14:56:47;23.30;99.90
25628;DHT22;40915;50.826;4.356;2023-10-08T14:59:12;23.20;99.90
25628;DHT22;40915;50.826;4.356;2023-10-08T15:01:40;23.20;99.90
25628;DHT22;40915;50.826;4.356;2023-10-08T15:04:06;23.10;99.90
25628;DHT22;40915;50.826;4.356;2023-10-08T15:06:37;23.10;99.90
25628;DHT22;40915;50.826;4.356;2023-10-08T15:09:07;23.00;99.90
25628;DHT22;40915;50.826;4.356;2023-10-08T15:11:44;22.90;99.90
25628;DHT22;40915;50.826;4.356;2023-10-08T15:14:11;22.90;99.90
25628;DHT22;40915;50.826;4.356;2023-10-08T15:16:38;22.80;99.90
25628;DHT22;40915;50.826;4.356;2023-10-08T15:19:04;22.70;99.90
25628;DHT22;40915;50.826;4.356;2023-10-08T15:21:31;22.70;99.90
25628;DHT22;40915;50.826;4.356;2023-10-08T15:23:59;22.70;99.90
25628;DHT22;40915;50.826;4.356;2023-10-08T15:26:32;22.60;99.90
25628;DHT22;40915;50.826;4.356;2023-10-08T15:28:57;22.60;99.90
25628;DHT22;40915;50.826;4.356;2023-10-08T15:31:23;22.50;99.90
25628;DHT22;40915;50.826;4.356;2023-10-08T15:33:50;22.50;99.90
25628;DHT22;40915;50.826;4.356;2023-10-08T15:36:15;22.50;99.90
25628;DHT22;40915;50.826;4.356;2023-10-08T15:38:41;22.40;99.90
25628;DHT22;40915;50.826;4.356;2023-10-08T15:41:07;22.40;99.90
25628;DHT22;40915;50.826;4.356;2023-10-08T15:43:33;22.40;99.90
25628;DHT22;40915;50.826;4.356;2023-10-08T15:45:59;22.40;99.90
25628;DHT22;40915;50.826;4.356;2023-10-08T15:48:27;22.40;99.90
25628;DHT22;40915;50.826;4.356;2023-10-08T15:50:54;22.30;99.90
25628;DHT22;40915;50.826;4.356;2023-10-08T15:53:19;22.30;99.90
25628;DHT22;40915;50.826;4.356;2023-10-08T15:55:45;22.30;99.90
25628;DHT22;40915;50.826;4.356;2023-10-08T15:58:12;22.20;99.90
25628;DHT22;40915;50.826;4.356;2023-10-08T16:00:38;22.20;99.90
25628;DHT22;40915;50.826;4.356;2023-10-08T16:03:04;22.20;99.90
25628;DHT22;40915;50.826;4.356;2023-10-08T16:05:31;22.10;99.90
25628;DHT22;40915;50.826;4.356;2023-10-08T16:07:57;22.10;99.90
25628;DHT22;40915;50.826;4.356;2023-10-08T16:10:25;22.10;99.90
25628;DHT22;40915;50.826;4.356;2023-10-08T16:12:51;22.10;99.90
25628;DHT22;40915;50.826;4.356;2023-10-08T16:15:17;22.10;99.90
25628;DHT22;40915;50.826;4.356;2023-10-08T16:17:44;22.00;99.90
25628;DHT22;40915;50.826;4.356;2023-10-08T16:20:10;22.00;99.90
25628;DHT22;40915;50.826;4.356;2023-10-08T16:22:43;21.90;99.90
25628;DHT22;40915;50.826;4.356;2023-10-08T16:25:13;21.90;99.90
25628;DHT22;40915;50.826;4.356;2023-10-08T16:27:42;21.90;99.90
25628;DHT22;40915;50.826;4.356;2023-10-08T16:30:20;21.80;99.90
25628;DHT22;40915;50.826;4.356;2023-10-08T16:32:52;21.70;99.90
25628;DHT22;40915;50.826;4.356;2023-10-08T16:35:18;21.70;99.90
25628;DHT22;40915;50.826;4.356;2023-10-08T16:37:49;21.60;99.90
25628;DHT22;40915;50.826;4.356;2023-10-08T16:40:16;21.60;99.90
25628;DHT22;40915;50.826;4.356;2023-10-08T16:42:44;21.50;99.90
25628;DHT22;40915;50.826;4.356;2023-10-08T16:45:10;21.40;99.90
25628;DHT22;40915;50.826;4.356;2023-10-08T16:47:36;21.40;99.90
25628;DHT22;40915;50.826;4.356;2023-10-08T16:50:01;21.30;99.90
25628;DHT22;40915;50.826;4.356;2023-10-08T16:52:27;21.20;99.90
25628;DHT22;40915;50.826;4.356;2023-10-08T16:54:53;21.20;99.90
25628;DHT22;40915;50.826;4.356;2023-10-08T16:57:22;21.10;99.90
25628;DHT22;40915;50.826;4.356;2023-10-08T16:59:49;21.10;99.90
25628;DHT22;40915;50.826;4.356;2023-10-08T17:02:17;21.00;99.90
25628;DHT22;40915;50.826;4.356;2023-10-08T17:04:45;21.00;99.90
25628;DHT22;40915;50.826;4.356;2023-10-08T17:07:11;20.90;99.90
25628;DHT22;40915;50.826;4.356;2023-10-08T17:09:36;20.90;99.90
25628;DHT22;40915;50.826;4.356;2023-10-08T17:12:03;20.80;99.90
25628;DHT22;40915;50.826;4.356;2023-10-08T17:14:29;20.70;99.90
25628;DHT22;40915;50.826;4.356;2023-10-08T17:16:54;20.60;99.90
25628;DHT22;40915;50.826;4.356;2023-10-08T17:19:20;20.60;99.90
25628;DHT22;40915;50.826;4.356;2023-10-08T17:21:49;20.50;99.90
25628;DHT22;40915;50.826;4.356;2023-10-08T17:24:15;20.50;99.90
25628;DHT22;40915;50.826;4.356;2023-10-08T17:26:41;20.40;99.90
25628;DHT22;40915;50.826;4.356;2023-10-08T17:29:07;20.40;99.90
25628;DHT22;40915;50.826;4.356;2023-10-08T17:31:34;20.40;99.90
25628;DHT22;40915;50.826;4.356;2023-10-08T17:34:01;20.30;99.90
25628;DHT22;40915;50.826;4.356;2023-10-08T17:36:28;20.30;99.90
25628;DHT22;40915;50.826;4.356;2023-10-08T17:38:55;20.20;99.90
25628;DHT22;40915;50.826;4.356;2023-10-08T17:41:21;20.20;99.90
25628;DHT22;40915;50.826;4.356;2023-10-08T17:43:47;20.10;99.90
25628;DHT22;40915;50.826;4.356;2023-10-08T17:46:12;20.10;99.90
25628;DHT22;40915;50.826;4.356;2023-10-08T17:48:38;20.10;99.90
25628;DHT22;40915;50.826;4.356;2023-10-08T17:51:05;20.00;99.90
25628;DHT22;40915;50.826;4.356;2023-10-08T17:53:31;20.00;99.90
25628;DHT22;40915;50.826;4.356;2023-10-08T17:55:57;19.90;99.90
25628;DHT22;40915;50.826;4.356;2023-10-08T17:58:23;19.90;99.90
25628;DHT22;40915;50.826;4.356;2023-10-08T18:00:54;19.80;99.90
25628;DHT22;40915;50.826;4.356;2023-10-08T18:03:20;19.80;99.90
25628;DHT22;40915;50.826;4.356;2023-10-08T18:05:46;19.70;99.90
25628;DHT22;40915;50.826;4.356;2023-10-08T18:08:12;19.70;99.90
25628;DHT22;40915;50.826;4.356;2023-10-08T18:10:38;19.70;99.90
25628;DHT22;40915;50.826;4.356;2023-10-08T18:13:04;19.60;99.90
25628;DHT22;40915;50.826;4.356;2023-10-08T18:15:30;19.50;99.90
25628;DHT22;40915;50.826;4.356;2023-10-08T18:17:58;19.60;99.90
25628;DHT22;40915;50.826;4.356;2023-10-08T18:20:24;19.60;99.90
25628;DHT22;40915;50.826;4.356;2023-10-08T18:23:01;19.50;99.90
25628;DHT22;40915;50.826;4.356;2023-10-08T18:25:27;19.40;99.90
25628;DHT22;40915;50.826;4.356;2023-10-08T18:27:57;19.40;99.90
25628;DHT22;40915;50.826;4.356;2023-10-08T18:30:23;19.40;99.90
25628;DHT22;40915;50.826;4.356;2023-10-08T18:32:51;19.40;99.90
25628;DHT22;40915;50.826;4.356;2023-10-08T18:35:19;19.40;99.90
25628;DHT22;40915;50.826;4.356;2023-10-08T18:37:44;19.40;99.90
25628;DHT22;40915;50.826;4.356;2023-10-08T18:40:10;19.40;99.90
25628;DHT22;40915;50.826;4.356;2023-10-08T18:42:40;19.40;99.90
25628;DHT22;40915;50.826;4.356;2023-10-08T18:45:07;19.30;99.90
25628;DHT22;40915;50.826;4.356;2023-10-08T18:47:33;19.40;99.90
25628;DHT22;40915;50.826;4.356;2023-10-08T18:49:59;19.30;99.90
25628;DHT22;40915;50.826;4.356;2023-10-08T18:52:25;19.30;99.90
25628;DHT22;40915;50.826;4.356;2023-10-08T18:54:52;19.30;99.90
25628;DHT22;40915;50.826;4.356;2023-10-08T18:57:18;19.30;99.90
25628;DHT22;40915;50.826;4.356;2023-10-08T18:59:44;19.30;99.90
25628;DHT22;40915;50.826;4.356;2023-10-08T19:02:10;19.30;99.90
25628;DHT22;40915;50.826;4.356;2023-10-08T19:04:36;19.20;99.90
25628;DHT22;40915;50.826;4.356;2023-10-08T19:07:01;19.20;99.90
25628;DHT22;40915;50.826;4.356;2023-10-08T20:00:57;18.90;99.90
25628;DHT22;40915;50.826;4.356;2023-10-08T20:03:23;18.90;99.90
25628;DHT22;40915;50.826;4.356;2023-10-08T20:05:49;18.80;99.90
25628;DHT22;40915;50.826;4.356;2023-10-08T20:08:15;18.70;99.90
25628;DHT22;40915;50.826;4.356;2023-10-08T20:10:44;18.70;99.90
25628;DHT22;40915;50.826;4.356;2023-10-08T20:13:12;18.70;99.90
25628;DHT22;40915;50.826;4.356;2023-10-08T20:15:41;18.60;99.90
25628;DHT22;40915;50.826;4.356;2023-10-08T20:18:10;18.60;99.90
25628;DHT22;40915;50.826;4.356;2023-10-08T20:20:37;18.60;99.90
25628;DHT22;40915;50.826;4.356;2023-10-08T20:23:04;18.50;99.90
25628;DHT22;40915;50.826;4.356;2023-10-08T20:25:37;18.40;99.90
25628;DHT22;40915;50.826;4.356;2023-10-08T20:28:06;18.30;99.90
25628;DHT22;40915;50.826;4.356;2023-10-08T20:30:33;18.30;99.90
25628;DHT22;40915;50.826;4.356;2023-10-08T20:33:02;18.20;99.90
25628;DHT22;40915;50.826;4.356;2023-10-08T20:35:32;18.20;99.90
25628;DHT22;40915;50.826;4.356;2023-10-08T20:37:59;18.10;99.90
25628;DHT22;40915;50.826;4.356;2023-10-08T20:40:25;18.10;99.90
25628;DHT22;40915;50.826;4.356;2023-10-08T20:42:54;18.10;99.90
25628;DHT22;40915;50.826;4.356;2023-10-08T20:45:20;18.10;99.90
25628;DHT22;40915;50.826;4.356;2023-10-08T20:47:51;18.10;99.90
25628;DHT22;40915;50.826;4.356;2023-10-08T20:50:19;18.20;99.90
25628;DHT22;40915;50.826;4.356;2023-10-08T20:52:46;18.20;99.90
25628;DHT22;40915;50.826;4.356;2023-10-08T20:55:15;18.20;99.90
25628;DHT22;40915;50.826;4.356;2023-10-08T20:57:45;18.20;99.90
25628;DHT22;40915;50.826;4.356;2023-10-08T21:00:13;18.30;99.90
25628;DHT22;40915;50.826;4.356;2023-10-08T21:02:53;18.30;99.90
25628;DHT22;40915;50.826;4.356;2023-10-08T21:05:19;18.30;99.90
25628;DHT22;40915;50.826;4.356;2023-10-08T21:07:46;18.30;99.90
25628;DHT22;40915;50.826;4.356;2023-10-08T21:10:14;18.30;99.90
25628;DHT22;40915;50.826;4.356;2023-10-08T21:12:41;18.30;99.90
25628;DHT22;40915;50.826;4.356;2023-10-08T21:15:11;18.30;99.90
25628;DHT22;40915;50.826;4.356;2023-10-08T21:17:39;18.30;99.90
25628;DHT22;40915;50.826;4.356;2023-10-08T21:20:07;18.30;99.90
25628;DHT22;40915;50.826;4.356;2023-10-08T21:22:39;18.20;99.90
25628;DHT22;40915;50.826;4.356;2023-10-08T21:25:06;18.20;99.90
25628;DHT22;40915;50.826;4.356;2023-10-08T21:27:42;18.20;99.90
25628;DHT22;40915;50.826;4.356;2023-10-08T21:30:12;18.10;99.90
25628;DHT22;40915;50.826;4.356;2023-10-08T21:32:42;18.10;99.90
25628;DHT22;40915;50.826;4.356;2023-10-08T21:35:10;18.10;99.90
25628;DHT22;40915;50.826;4.356;2023-10-08T21:37:37;18.10;99.90
25628;DHT22;40915;50.826;4.356;2023-10-08T21:40:04;18.00;99.90
25628;DHT22;40915;50.826;4.356;2023-10-08T21:42:39;17.90;99.90
25628;DHT22;40915;50.826;4.356;2023-10-08T21:45:09;18.00;99.90
25628;DHT22;40915;50.826;4.356;2023-10-08T21:47:36;17.90;99.90
25628;DHT22;40915;50.826;4.356;2023-10-08T21:50:03;17.90;99.90
25628;DHT22;40915;50.826;4.356;2023-10-08T21:52:29;17.90;99.90
25628;DHT22;40915;50.826;4.356;2023-10-08T21:54:55;17.90;99.90
25628;DHT22;40915;50.826;4.356;2023-10-08T21:57:21;17.80;99.90
25628;DHT22;40915;50.826;4.356;2023-10-08T21:59:50;17.80;99.90
25628;DHT22;40915;50.826;4.356;2023-10-08T22:02:19;17.80;99.90
25628;DHT22;40915;50.826;4.356;2023-10-08T22:04:48;17.80;99.90
25628;DHT22;40915;50.826;4.356;2023-10-08T22:07:15;17.80;99.90
25628;DHT22;40915;50.826;4.356;2023-10-08T22:09:42;17.80;99.90
25628;DHT22;40915;50.826;4.356;2023-10-08T22:12:07;17.70;99.90
25628;DHT22;40915;50.826;4.356;2023-10-08T22:14:37;17.70;99.90
25628;DHT22;40915;50.826;4.356;2023-10-08T22:17:12;17.70;99.90
25628;DHT22;40915;50.826;4.356;2023-10-08T22:19:39;17.70;99.90
25628;DHT22;40915;50.826;4.356;2023-10-08T22:22:10;17.70;99.90